sensor_id;sensor_type;location;lat;lon;timestamp;P1;durP1;ratioP1;P2;durP2;ratioP2
39864;SDS011;25538;48.392;9.976;2022-08-19T00:01:36;70.23;;;56.70;;
39864;SDS011;25538;48.392;9.976;2022-08-19T00:04:04;93.73;;;64.53;;
39864;SDS011;25538;48.392;9.976;2022-08-19T00:06:33;82.23;;;63.67;;
39864;SDS011;25538;48.392;9.976;2022-08-19T00:09:00;82.90;;;64.47;;
39864;SDS011;25538;48.392;9.976;2022-08-19T00:11:27;89.13;;;64.87;;
39864;SDS011;25538;48.392;9.976;2022-08-19T00:13:54;89.33;;;69.90;;
39864;SDS011;25538;48.392;9.976;2022-08-19T00:16:22;102.37;;;72.13;;
39864;SDS011;25538;48.392;9.976;2022-08-19T00:18:49;81.77;;;65.93;;
39864;SDS011;25538;48.392;9.976;2022-08-19T00:21:15;89.37;;;68.80;;
39864;SDS011;25538;48.392;9.976;2022-08-19T00:23:42;86.10;;;68.60;;
39864;SDS011;25538;48.392;9.976;2022-08-19T00:26:09;84.73;;;66.50;;
39864;SDS011;25538;48.392;9.976;2022-08-19T00:28:35;83.27;;;68.33;;
39864;SDS011;25538;48.392;9.976;2022-08-19T00:31:02;78.80;;;65.43;;
39864;SDS011;25538;48.392;9.976;2022-08-19T00:33:30;85.10;;;64.70;;
39864;SDS011;25538;48.392;9.976;2022-08-19T00:35:58;84.57;;;65.07;;
39864;SDS011;25538;48.392;9.976;2022-08-19T00:38:25;91.03;;;68.70;;
39864;SDS011;25538;48.392;9.976;2022-08-19T00:40:51;88.00;;;65.80;;
39864;SDS011;25538;48.392;9.976;2022-08-19T00:43:18;86.50;;;68.60;;
39864;SDS011;25538;48.392;9.976;2022-08-19T00:45:46;78.30;;;63.63;;
39864;SDS011;25538;48.392;9.976;2022-08-19T00:48:13;71.87;;;64.00;;
39864;SDS011;25538;48.392;9.976;2022-08-19T00:50:40;70.73;;;61.30;;
39864;SDS011;25538;48.392;9.976;2022-08-19T00:53:09;65.97;;;59.07;;
39864;SDS011;25538;48.392;9.976;2022-08-19T00:55:37;70.57;;;60.17;;
39864;SDS011;25538;48.392;9.976;2022-08-19T00:58:08;68.67;;;60.10;;
39864;SDS011;25538;48.392;9.976;2022-08-19T01:00:39;63.97;;;57.80;;
39864;SDS011;25538;48.392;9.976;2022-08-19T01:03:06;67.37;;;60.17;;
39864;SDS011;25538;48.392;9.976;2022-08-19T01:05:34;68.43;;;60.10;;
39864;SDS011;25538;48.392;9.976;2022-08-19T01:08:02;65.00;;;58.30;;
39864;SDS011;25538;48.392;9.976;2022-08-19T01:10:31;70.80;;;60.50;;
39864;SDS011;25538;48.392;9.976;2022-08-19T01:13:01;74.53;;;62.70;;
39864;SDS011;25538;48.392;9.976;2022-08-19T01:15:39;74.70;;;65.93;;
39864;SDS011;25538;48.392;9.976;2022-08-19T01:18:12;71.03;;;63.40;;
39864;SDS011;25538;48.392;9.976;2022-08-19T01:20:41;67.27;;;59.87;;
39864;SDS011;25538;48.392;9.976;2022-08-19T01:23:07;72.23;;;64.33;;
39864;SDS011;25538;48.392;9.976;2022-08-19T01:25:51;71.90;;;64.10;;
39864;SDS011;25538;48.392;9.976;2022-08-19T01:28:24;73.60;;;62.33;;
39864;SDS011;25538;48.392;9.976;2022-08-19T01:30:52;71.07;;;62.83;;
39864;SDS011;25538;48.392;9.976;2022-08-19T01:33:19;73.37;;;63.70;;
39864;SDS011;25538;48.392;9.976;2022-08-19T01:35:46;82.77;;;63.70;;
39864;SDS011;25538;48.392;9.976;2022-08-19T01:38:19;72.47;;;63.57;;
39864;SDS011;25538;48.392;9.976;2022-08-19T01:40:52;62.83;;;56.53;;
39864;SDS011;25538;48.392;9.976;2022-08-19T01:43:18;64.43;;;57.90;;
39864;SDS011;25538;48.392;9.976;2022-08-19T01:45:44;69.73;;;60.47;;
39864;SDS011;25538;48.392;9.976;2022-08-19T01:48:12;67.53;;;59.17;;
39864;SDS011;25538;48.392;9.976;2022-08-19T01:50:38;67.33;;;58.47;;
39864;SDS011;25538;48.392;9.976;2022-08-19T01:53:05;69.83;;;59.70;;
39864;SDS011;25538;48.392;9.976;2022-08-19T01:55:36;61.60;;;54.93;;
39864;SDS011;25538;48.392;9.976;2022-08-19T01:58:04;62.17;;;55.43;;
39864;SDS011;25538;48.392;9.976;2022-08-19T02:00:33;58.37;;;52.53;;
39864;SDS011;25538;48.392;9.976;2022-08-19T02:02:59;58.77;;;52.57;;
39864;SDS011;25538;48.392;9.976;2022-08-19T02:05:26;60.40;;;53.93;;
39864;SDS011;25538;48.392;9.976;2022-08-19T02:07:55;61.20;;;54.90;;
39864;SDS011;25538;48.392;9.976;2022-08-19T02:10:22;60.97;;;54.40;;
39864;SDS011;25538;48.392;9.976;2022-08-19T02:12:48;62.70;;;55.80;;
39864;SDS011;25538;48.392;9.976;2022-08-19T02:15:15;66.37;;;58.50;;
39864;SDS011;25538;48.392;9.976;2022-08-19T02:17:42;71.70;;;61.70;;
39864;SDS011;25538;48.392;9.976;2022-08-19T02:20:08;77.80;;;61.20;;
39864;SDS011;25538;48.392;9.976;2022-08-19T02:22:35;82.70;;;65.03;;
39864;SDS011;25538;48.392;9.976;2022-08-19T02:25:01;84.97;;;64.00;;
39864;SDS011;25538;48.392;9.976;2022-08-19T02:27:29;75.87;;;63.23;;
39864;SDS011;25538;48.392;9.976;2022-08-19T02:29:56;77.20;;;61.47;;
39864;SDS011;25538;48.392;9.976;2022-08-19T02:32:22;89.90;;;65.83;;
39864;SDS011;25538;48.392;9.976;2022-08-19T02:34:47;90.50;;;69.50;;
39864;SDS011;25538;48.392;9.976;2022-08-19T02:37:14;95.10;;;68.40;;
39864;SDS011;25538;48.392;9.976;2022-08-19T02:39:59;88.53;;;65.60;;
39864;SDS011;25538;48.392;9.976;2022-08-19T02:42:25;79.73;;;63.00;;
39864;SDS011;25538;48.392;9.976;2022-08-19T02:44:51;84.83;;;65.27;;
39864;SDS011;25538;48.392;9.976;2022-08-19T02:47:17;69.93;;;59.07;;
39864;SDS011;25538;48.392;9.976;2022-08-19T02:49:44;68.50;;;58.10;;
39864;SDS011;25538;48.392;9.976;2022-08-19T02:52:11;68.07;;;60.67;;
39864;SDS011;25538;48.392;9.976;2022-08-19T02:54:37;78.87;;;62.73;;
39864;SDS011;25538;48.392;9.976;2022-08-19T02:57:04;67.80;;;57.90;;
39864;SDS011;25538;48.392;9.976;2022-08-19T02:59:31;69.80;;;59.80;;
39864;SDS011;25538;48.392;9.976;2022-08-19T03:01:57;65.23;;;58.10;;
39864;SDS011;25538;48.392;9.976;2022-08-19T03:04:23;75.33;;;61.57;;
39864;SDS011;25538;48.392;9.976;2022-08-19T03:06:49;68.47;;;58.03;;
39864;SDS011;25538;48.392;9.976;2022-08-19T03:09:16;77.60;;;60.17;;
39864;SDS011;25538;48.392;9.976;2022-08-19T03:11:43;79.50;;;64.50;;
39864;SDS011;25538;48.392;9.976;2022-08-19T03:14:09;74.07;;;60.80;;
39864;SDS011;25538;48.392;9.976;2022-08-19T03:16:43;77.77;;;64.43;;
39864;SDS011;25538;48.392;9.976;2022-08-19T03:19:15;74.97;;;62.27;;
39864;SDS011;25538;48.392;9.976;2022-08-19T03:21:43;80.10;;;67.30;;
39864;SDS011;25538;48.392;9.976;2022-08-19T03:24:10;68.90;;;59.47;;
39864;SDS011;25538;48.392;9.976;2022-08-19T03:26:40;65.20;;;57.60;;
39864;SDS011;25538;48.392;9.976;2022-08-19T03:29:08;64.87;;;57.87;;
39864;SDS011;25538;48.392;9.976;2022-08-19T03:31:36;59.33;;;53.17;;
39864;SDS011;25538;48.392;9.976;2022-08-19T03:34:03;67.43;;;58.00;;
39864;SDS011;25538;48.392;9.976;2022-08-19T03:36:29;64.97;;;57.67;;
39864;SDS011;25538;48.392;9.976;2022-08-19T03:38:56;74.87;;;58.50;;
39864;SDS011;25538;48.392;9.976;2022-08-19T03:41:28;70.50;;;60.10;;
39864;SDS011;25538;48.392;9.976;2022-08-19T03:43:57;65.43;;;58.00;;
39864;SDS011;25538;48.392;9.976;2022-08-19T03:46:25;84.40;;;63.40;;
39864;SDS011;25538;48.392;9.976;2022-08-19T03:48:54;75.10;;;61.30;;
39864;SDS011;25538;48.392;9.976;2022-08-19T03:53:48;66.27;;;58.27;;
39864;SDS011;25538;48.392;9.976;2022-08-19T03:56:14;66.40;;;59.20;;
39864;SDS011;25538;48.392;9.976;2022-08-19T03:58:41;77.03;;;60.53;;
39864;SDS011;25538;48.392;9.976;2022-08-19T04:01:11;70.63;;;60.53;;
39864;SDS011;25538;48.392;9.976;2022-08-19T04:03:43;70.30;;;60.80;;
39864;SDS011;25538;48.392;9.976;2022-08-19T04:08:41;86.63;;;63.57;;
39864;SDS011;25538;48.392;9.976;2022-08-19T04:11:09;93.17;;;67.37;;
39864;SDS011;25538;48.392;9.976;2022-08-19T04:13:37;75.30;;;60.53;;
39864;SDS011;25538;48.392;9.976;2022-08-19T04:16:03;77.30;;;63.03;;
39864;SDS011;25538;48.392;9.976;2022-08-19T04:18:30;60.70;;;54.40;;
39864;SDS011;25538;48.392;9.976;2022-08-19T04:20:58;62.47;;;55.60;;
39864;SDS011;25538;48.392;9.976;2022-08-19T04:23:24;71.50;;;58.67;;
39864;SDS011;25538;48.392;9.976;2022-08-19T04:25:50;61.37;;;54.77;;
39864;SDS011;25538;48.392;9.976;2022-08-19T04:28:16;74.57;;;60.10;;
39864;SDS011;25538;48.392;9.976;2022-08-19T04:30:46;67.67;;;60.37;;
39864;SDS011;25538;48.392;9.976;2022-08-19T04:33:15;69.10;;;59.37;;
39864;SDS011;25538;48.392;9.976;2022-08-19T04:35:44;61.70;;;55.17;;
39864;SDS011;25538;48.392;9.976;2022-08-19T04:38:13;60.47;;;54.03;;
39864;SDS011;25538;48.392;9.976;2022-08-19T04:40:44;64.33;;;57.43;;
39864;SDS011;25538;48.392;9.976;2022-08-19T04:43:30;73.80;;;59.42;;
39864;SDS011;25538;48.392;9.976;2022-08-19T04:45:57;75.07;;;59.60;;
39864;SDS011;25538;48.392;9.976;2022-08-19T04:48:23;77.43;;;62.37;;
39864;SDS011;25538;48.392;9.976;2022-08-19T04:50:53;70.50;;;59.47;;
39864;SDS011;25538;48.392;9.976;2022-08-19T04:53:26;83.45;;;63.90;;
39864;SDS011;25538;48.392;9.976;2022-08-19T04:55:54;77.07;;;62.50;;
39864;SDS011;25538;48.392;9.976;2022-08-19T04:58:22;64.33;;;55.50;;
39864;SDS011;25538;48.392;9.976;2022-08-19T05:00:49;59.80;;;53.60;;
39864;SDS011;25538;48.392;9.976;2022-08-19T05:03:15;58.03;;;50.90;;
39864;SDS011;25538;48.392;9.976;2022-08-19T05:05:42;58.67;;;52.40;;
39864;SDS011;25538;48.392;9.976;2022-08-19T05:08:10;56.83;;;50.83;;
39864;SDS011;25538;48.392;9.976;2022-08-19T05:10:37;57.20;;;51.07;;
39864;SDS011;25538;48.392;9.976;2022-08-19T05:13:05;56.10;;;50.20;;
39864;SDS011;25538;48.392;9.976;2022-08-19T05:15:30;61.50;;;55.00;;
39864;SDS011;25538;48.392;9.976;2022-08-19T05:17:57;60.17;;;53.03;;
39864;SDS011;25538;48.392;9.976;2022-08-19T05:20:41;56.10;;;50.30;;
39864;SDS011;25538;48.392;9.976;2022-08-19T05:23:26;55.00;;;49.10;;
39864;SDS011;25538;48.392;9.976;2022-08-19T05:25:52;69.07;;;56.20;;
39864;SDS011;25538;48.392;9.976;2022-08-19T05:28:18;79.57;;;61.07;;
39864;SDS011;25538;48.392;9.976;2022-08-19T05:30:45;73.27;;;57.93;;
39864;SDS011;25538;48.392;9.976;2022-08-19T05:33:13;68.40;;;55.43;;
39864;SDS011;25538;48.392;9.976;2022-08-19T05:35:39;63.40;;;53.35;;
39864;SDS011;25538;48.392;9.976;2022-08-19T05:38:06;69.30;;;56.37;;
39864;SDS011;25538;48.392;9.976;2022-08-19T05:40:34;69.80;;;56.30;;
39864;SDS011;25538;48.392;9.976;2022-08-19T05:43:04;75.93;;;59.83;;
39864;SDS011;25538;48.392;9.976;2022-08-19T05:45:32;73.40;;;59.80;;
39864;SDS011;25538;48.392;9.976;2022-08-19T05:48:03;75.80;;;57.70;;
39864;SDS011;25538;48.392;9.976;2022-08-19T05:50:29;71.17;;;57.00;;
39864;SDS011;25538;48.392;9.976;2022-08-19T05:52:55;77.80;;;58.37;;
39864;SDS011;25538;48.392;9.976;2022-08-19T05:55:21;96.40;;;64.67;;
39864;SDS011;25538;48.392;9.976;2022-08-19T05:57:47;104.53;;;69.47;;
39864;SDS011;25538;48.392;9.976;2022-08-19T06:00:14;96.57;;;63.40;;
39864;SDS011;25538;48.392;9.976;2022-08-19T06:02:40;80.23;;;63.70;;
39864;SDS011;25538;48.392;9.976;2022-08-19T06:05:06;72.93;;;59.77;;
39864;SDS011;25538;48.392;9.976;2022-08-19T06:07:35;84.87;;;62.10;;
39864;SDS011;25538;48.392;9.976;2022-08-19T06:10:03;88.97;;;65.30;;
39864;SDS011;25538;48.392;9.976;2022-08-19T06:12:31;87.70;;;63.37;;
39864;SDS011;25538;48.392;9.976;2022-08-19T06:15:17;89.60;;;65.53;;
39864;SDS011;25538;48.392;9.976;2022-08-19T06:17:43;93.63;;;64.07;;
39864;SDS011;25538;48.392;9.976;2022-08-19T06:20:11;90.97;;;64.30;;
39864;SDS011;25538;48.392;9.976;2022-08-19T06:22:39;84.33;;;61.00;;
39864;SDS011;25538;48.392;9.976;2022-08-19T06:25:07;86.03;;;62.40;;
39864;SDS011;25538;48.392;9.976;2022-08-19T06:27:34;103.47;;;67.20;;
39864;SDS011;25538;48.392;9.976;2022-08-19T06:30:01;83.20;;;61.43;;
39864;SDS011;25538;48.392;9.976;2022-08-19T06:32:28;72.60;;;56.43;;
39864;SDS011;25538;48.392;9.976;2022-08-19T06:34:55;79.07;;;58.80;;
39864;SDS011;25538;48.392;9.976;2022-08-19T06:37:21;86.83;;;64.50;;
39864;SDS011;25538;48.392;9.976;2022-08-19T06:39:48;80.27;;;60.27;;
39864;SDS011;25538;48.392;9.976;2022-08-19T06:42:14;86.47;;;63.90;;
39864;SDS011;25538;48.392;9.976;2022-08-19T06:44:44;94.40;;;62.50;;
39864;SDS011;25538;48.392;9.976;2022-08-19T06:47:15;75.70;;;58.97;;
39864;SDS011;25538;48.392;9.976;2022-08-19T06:49:43;83.40;;;60.53;;
39864;SDS011;25538;48.392;9.976;2022-08-19T06:52:10;96.73;;;66.00;;
39864;SDS011;25538;48.392;9.976;2022-08-19T06:54:40;71.90;;;59.90;;
39864;SDS011;25538;48.392;9.976;2022-08-19T06:57:07;77.30;;;60.47;;
39864;SDS011;25538;48.392;9.976;2022-08-19T06:59:38;68.33;;;56.50;;
39864;SDS011;25538;48.392;9.976;2022-08-19T07:02:05;111.40;;;91.00;;
39864;SDS011;25538;48.392;9.976;2022-08-19T07:04:32;70.57;;;56.50;;
39864;SDS011;25538;48.392;9.976;2022-08-19T07:07:03;73.77;;;59.97;;
39864;SDS011;25538;48.392;9.976;2022-08-19T07:09:33;76.57;;;58.20;;
39864;SDS011;25538;48.392;9.976;2022-08-19T07:12:03;68.13;;;55.93;;
39864;SDS011;25538;48.392;9.976;2022-08-19T07:14:32;72.27;;;57.83;;
39864;SDS011;25538;48.392;9.976;2022-08-19T07:17:02;58.90;;;52.00;;
39864;SDS011;25538;48.392;9.976;2022-08-19T07:19:30;59.00;;;52.50;;
39864;SDS011;25538;48.392;9.976;2022-08-19T07:21:57;66.90;;;53.83;;
39864;SDS011;25538;48.392;9.976;2022-08-19T07:24:26;68.63;;;55.47;;
39864;SDS011;25538;48.392;9.976;2022-08-19T07:26:54;61.60;;;52.07;;
39864;SDS011;25538;48.392;9.976;2022-08-19T07:29:25;56.23;;;50.33;;
39864;SDS011;25538;48.392;9.976;2022-08-19T07:31:53;54.30;;;48.60;;
39864;SDS011;25538;48.392;9.976;2022-08-19T07:34:24;57.73;;;51.43;;
39864;SDS011;25538;48.392;9.976;2022-08-19T07:36:51;52.60;;;47.07;;
39864;SDS011;25538;48.392;9.976;2022-08-19T07:39:20;58.10;;;51.83;;
39864;SDS011;25538;48.392;9.976;2022-08-19T07:41:50;66.47;;;52.93;;
39864;SDS011;25538;48.392;9.976;2022-08-19T07:44:17;55.63;;;49.83;;
39864;SDS011;25538;48.392;9.976;2022-08-19T07:46:46;57.47;;;49.87;;
39864;SDS011;25538;48.392;9.976;2022-08-19T07:49:16;58.23;;;51.93;;
39864;SDS011;25538;48.392;9.976;2022-08-19T07:51:45;57.80;;;51.70;;
39864;SDS011;25538;48.392;9.976;2022-08-19T07:54:13;53.27;;;47.63;;
39864;SDS011;25538;48.392;9.976;2022-08-19T07:56:39;52.17;;;46.57;;
39864;SDS011;25538;48.392;9.976;2022-08-19T07:59:05;64.40;;;52.60;;
39864;SDS011;25538;48.392;9.976;2022-08-19T08:01:31;57.57;;;51.30;;
39864;SDS011;25538;48.392;9.976;2022-08-19T08:03:57;62.47;;;53.90;;
39864;SDS011;25538;48.392;9.976;2022-08-19T08:06:42;64.70;;;53.60;;
39864;SDS011;25538;48.392;9.976;2022-08-19T08:09:29;59.03;;;52.60;;
39864;SDS011;25538;48.392;9.976;2022-08-19T08:12:02;64.37;;;51.83;;
39864;SDS011;25538;48.392;9.976;2022-08-19T08:14:37;58.23;;;51.90;;
39864;SDS011;25538;48.392;9.976;2022-08-19T08:17:09;59.00;;;52.67;;
39864;SDS011;25538;48.392;9.976;2022-08-19T08:19:35;57.03;;;50.83;;
39864;SDS011;25538;48.392;9.976;2022-08-19T08:22:02;54.30;;;47.70;;
39864;SDS011;25538;48.392;9.976;2022-08-19T08:24:31;55.93;;;50.17;;
39864;SDS011;25538;48.392;9.976;2022-08-19T08:26:58;61.60;;;50.60;;
39864;SDS011;25538;48.392;9.976;2022-08-19T08:29:26;64.57;;;52.70;;
39864;SDS011;25538;48.392;9.976;2022-08-19T08:31:53;58.77;;;50.90;;
39864;SDS011;25538;48.392;9.976;2022-08-19T08:34:19;64.60;;;54.27;;
39864;SDS011;25538;48.392;9.976;2022-08-19T08:36:45;61.83;;;52.60;;
39864;SDS011;25538;48.392;9.976;2022-08-19T08:39:16;66.60;;;54.07;;
39864;SDS011;25538;48.392;9.976;2022-08-19T08:44:53;61.87;;;50.50;;
39864;SDS011;25538;48.392;9.976;2022-08-19T08:47:26;58.30;;;47.27;;
39864;SDS011;25538;48.392;9.976;2022-08-19T08:49:59;63.30;;;51.23;;
39864;SDS011;25538;48.392;9.976;2022-08-19T08:52:32;67.20;;;51.87;;
39864;SDS011;25538;48.392;9.976;2022-08-19T08:55:05;55.03;;;49.17;;
39864;SDS011;25538;48.392;9.976;2022-08-19T08:57:36;60.67;;;51.60;;
39864;SDS011;25538;48.392;9.976;2022-08-19T09:02:59;62.97;;;53.57;;
39864;SDS011;25538;48.392;9.976;2022-08-19T09:06:02;66.73;;;56.10;;
39864;SDS011;25538;48.392;9.976;2022-08-19T09:08:36;69.13;;;54.10;;
39864;SDS011;25538;48.392;9.976;2022-08-19T09:11:13;71.70;;;54.13;;
39864;SDS011;25538;48.392;9.976;2022-08-19T09:16:49;62.27;;;53.40;;
39864;SDS011;25538;48.392;9.976;2022-08-19T09:19:16;63.77;;;54.77;;
39864;SDS011;25538;48.392;9.976;2022-08-19T09:21:42;68.23;;;53.60;;
39864;SDS011;25538;48.392;9.976;2022-08-19T09:24:09;68.20;;;56.13;;
39864;SDS011;25538;48.392;9.976;2022-08-19T09:26:34;54.23;;;48.40;;
39864;SDS011;25538;48.392;9.976;2022-08-19T09:29:00;58.83;;;52.47;;
39864;SDS011;25538;48.392;9.976;2022-08-19T09:31:30;55.23;;;49.03;;
39864;SDS011;25538;48.392;9.976;2022-08-19T09:33:58;53.03;;;47.67;;
39864;SDS011;25538;48.392;9.976;2022-08-19T09:36:26;53.33;;;47.97;;
39864;SDS011;25538;48.392;9.976;2022-08-19T09:38:55;48.47;;;43.50;;
39864;SDS011;25538;48.392;9.976;2022-08-19T09:41:23;50.70;;;45.50;;
39864;SDS011;25538;48.392;9.976;2022-08-19T09:43:51;51.00;;;45.60;;
39864;SDS011;25538;48.392;9.976;2022-08-19T09:46:21;48.37;;;43.73;;
39864;SDS011;25538;48.392;9.976;2022-08-19T09:48:49;48.80;;;44.30;;
39864;SDS011;25538;48.392;9.976;2022-08-19T09:51:17;46.40;;;42.10;;
39864;SDS011;25538;48.392;9.976;2022-08-19T09:53:47;47.60;;;43.10;;
39864;SDS011;25538;48.392;9.976;2022-08-19T09:56:19;45.80;;;41.40;;
39864;SDS011;25538;48.392;9.976;2022-08-19T09:58:46;47.47;;;42.90;;
39864;SDS011;25538;48.392;9.976;2022-08-19T10:01:17;47.37;;;42.87;;
39864;SDS011;25538;48.392;9.976;2022-08-19T10:03:49;48.30;;;43.70;;
39864;SDS011;25538;48.392;9.976;2022-08-19T10:06:18;44.77;;;40.77;;
39864;SDS011;25538;48.392;9.976;2022-08-19T10:08:45;48.13;;;43.37;;
39864;SDS011;25538;48.392;9.976;2022-08-19T10:11:11;44.83;;;40.70;;
39864;SDS011;25538;48.392;9.976;2022-08-19T10:13:39;50.50;;;45.60;;
39864;SDS011;25538;48.392;9.976;2022-08-19T10:16:07;47.33;;;42.67;;
39864;SDS011;25538;48.392;9.976;2022-08-19T10:18:36;46.20;;;42.00;;
39864;SDS011;25538;48.392;9.976;2022-08-19T10:21:08;47.77;;;43.27;;
39864;SDS011;25538;48.392;9.976;2022-08-19T10:23:35;46.30;;;41.80;;
39864;SDS011;25538;48.392;9.976;2022-08-19T10:26:03;45.77;;;41.40;;
39864;SDS011;25538;48.392;9.976;2022-08-19T10:28:34;49.10;;;44.60;;
39864;SDS011;25538;48.392;9.976;2022-08-19T10:31:05;46.73;;;42.33;;
39864;SDS011;25538;48.392;9.976;2022-08-19T10:33:33;49.37;;;44.60;;
39864;SDS011;25538;48.392;9.976;2022-08-19T10:36:00;48.80;;;44.33;;
39864;SDS011;25538;48.392;9.976;2022-08-19T10:38:28;51.00;;;46.30;;
39864;SDS011;25538;48.392;9.976;2022-08-19T10:40:54;46.20;;;42.10;;
39864;SDS011;25538;48.392;9.976;2022-08-19T10:43:20;48.60;;;44.30;;
39864;SDS011;25538;48.392;9.976;2022-08-19T10:45:53;47.70;;;43.37;;
39864;SDS011;25538;48.392;9.976;2022-08-19T10:48:24;42.77;;;39.13;;
39864;SDS011;25538;48.392;9.976;2022-08-19T10:50:50;46.50;;;42.17;;
39864;SDS011;25538;48.392;9.976;2022-08-19T10:53:35;46.10;;;41.83;;
39864;SDS011;25538;48.392;9.976;2022-08-19T10:56:01;51.33;;;45.87;;
39864;SDS011;25538;48.392;9.976;2022-08-19T10:58:46;53.30;;;48.07;;
39864;SDS011;25538;48.392;9.976;2022-08-19T11:01:12;53.57;;;48.03;;
39864;SDS011;25538;48.392;9.976;2022-08-19T11:03:38;54.30;;;48.67;;
39864;SDS011;25538;48.392;9.976;2022-08-19T11:06:05;58.43;;;52.37;;
39864;SDS011;25538;48.392;9.976;2022-08-19T11:08:33;57.20;;;51.40;;
39864;SDS011;25538;48.392;9.976;2022-08-19T11:11:03;56.50;;;50.83;;
39864;SDS011;25538;48.392;9.976;2022-08-19T11:13:31;58.93;;;52.53;;
39864;SDS011;25538;48.392;9.976;2022-08-19T11:16:00;73.30;;;54.87;;
39864;SDS011;25538;48.392;9.976;2022-08-19T11:18:28;69.30;;;55.97;;
39864;SDS011;25538;48.392;9.976;2022-08-19T11:20:54;105.90;;;62.97;;
39864;SDS011;25538;48.392;9.976;2022-08-19T11:23:20;90.77;;;61.20;;
39864;SDS011;25538;48.392;9.976;2022-08-19T11:25:45;84.40;;;59.13;;
39864;SDS011;25538;48.392;9.976;2022-08-19T11:28:12;115.53;;;67.07;;
39864;SDS011;25538;48.392;9.976;2022-08-19T11:30:38;97.60;;;61.58;;
39864;SDS011;25538;48.392;9.976;2022-08-19T11:33:04;132.67;;;68.70;;
39864;SDS011;25538;48.392;9.976;2022-08-19T11:35:30;106.23;;;66.77;;
39864;SDS011;25538;48.392;9.976;2022-08-19T11:37:58;106.97;;;63.40;;
39864;SDS011;25538;48.392;9.976;2022-08-19T11:40:25;116.75;;;66.50;;
39864;SDS011;25538;48.392;9.976;2022-08-19T11:42:50;135.57;;;69.30;;
39864;SDS011;25538;48.392;9.976;2022-08-19T11:45:21;173.38;;;75.53;;
39864;SDS011;25538;48.392;9.976;2022-08-19T11:47:51;110.03;;;67.88;;
39864;SDS011;25538;48.392;9.976;2022-08-19T11:50:18;131.73;;;70.90;;
39864;SDS011;25538;48.392;9.976;2022-08-19T11:52:44;119.97;;;69.85;;
39864;SDS011;25538;48.392;9.976;2022-08-19T11:55:11;186.15;;;78.95;;
39864;SDS011;25538;48.392;9.976;2022-08-19T11:57:38;133.00;;;73.05;;
39864;SDS011;25538;48.392;9.976;2022-08-19T12:00:06;169.07;;;80.47;;
39864;SDS011;25538;48.392;9.976;2022-08-19T12:02:34;153.77;;;76.30;;
39864;SDS011;25538;48.392;9.976;2022-08-19T12:05:00;143.40;;;76.03;;
39864;SDS011;25538;48.392;9.976;2022-08-19T12:07:28;136.77;;;74.37;;
39864;SDS011;25538;48.392;9.976;2022-08-19T12:09:58;164.97;;;75.03;;
39864;SDS011;25538;48.392;9.976;2022-08-19T12:12:25;140.60;;;75.70;;
39864;SDS011;25538;48.392;9.976;2022-08-19T12:14:52;128.47;;;70.27;;
39864;SDS011;25538;48.392;9.976;2022-08-19T12:17:30;117.17;;;65.57;;
39864;SDS011;25538;48.392;9.976;2022-08-19T12:19:56;137.17;;;70.27;;
39864;SDS011;25538;48.392;9.976;2022-08-19T12:22:22;117.50;;;67.17;;
39864;SDS011;25538;48.392;9.976;2022-08-19T12:24:48;115.83;;;66.60;;
39864;SDS011;25538;48.392;9.976;2022-08-19T12:27:16;129.90;;;70.60;;
39864;SDS011;25538;48.392;9.976;2022-08-19T12:29:42;140.57;;;72.70;;
39864;SDS011;25538;48.392;9.976;2022-08-19T12:32:08;110.43;;;67.93;;
39864;SDS011;25538;48.392;9.976;2022-08-19T12:34:34;127.88;;;68.93;;
39864;SDS011;25538;48.392;9.976;2022-08-19T12:37:03;112.93;;;65.30;;
39864;SDS011;25538;48.392;9.976;2022-08-19T12:39:33;135.55;;;73.30;;
39864;SDS011;25538;48.392;9.976;2022-08-19T12:42:00;116.93;;;64.43;;
39864;SDS011;25538;48.392;9.976;2022-08-19T12:44:26;146.10;;;67.07;;
39864;SDS011;25538;48.392;9.976;2022-08-19T12:46:52;125.90;;;66.57;;
39864;SDS011;25538;48.392;9.976;2022-08-19T12:49:18;120.30;;;63.73;;
39864;SDS011;25538;48.392;9.976;2022-08-19T12:51:44;83.20;;;57.90;;
39864;SDS011;25538;48.392;9.976;2022-08-19T12:54:11;86.78;;;57.25;;
39864;SDS011;25538;48.392;9.976;2022-08-19T12:56:37;145.30;;;62.60;;
39864;SDS011;25538;48.392;9.976;2022-08-19T12:59:03;117.63;;;58.97;;
39864;SDS011;25538;48.392;9.976;2022-08-19T13:01:30;95.00;;;53.50;;
39864;SDS011;25538;48.392;9.976;2022-08-19T13:03:58;47.07;;;40.27;;
39864;SDS011;25538;48.392;9.976;2022-08-19T13:06:25;55.63;;;40.40;;
39864;SDS011;25538;48.392;9.976;2022-08-19T13:08:51;57.27;;;40.37;;
39864;SDS011;25538;48.392;9.976;2022-08-19T13:11:18;54.07;;;40.77;;
39864;SDS011;25538;48.392;9.976;2022-08-19T13:13:47;65.93;;;41.90;;
39864;SDS011;25538;48.392;9.976;2022-08-19T13:16:15;63.13;;;42.70;;
39864;SDS011;25538;48.392;9.976;2022-08-19T13:18:45;50.87;;;37.80;;
39864;SDS011;25538;48.392;9.976;2022-08-19T13:21:18;53.60;;;38.00;;
39864;SDS011;25538;48.392;9.976;2022-08-19T13:23:45;62.60;;;39.10;;
39864;SDS011;25538;48.392;9.976;2022-08-19T13:26:12;52.83;;;34.73;;
39864;SDS011;25538;48.392;9.976;2022-08-19T13:28:39;41.07;;;32.33;;
39864;SDS011;25538;48.392;9.976;2022-08-19T13:31:41;49.10;;;30.87;;
39864;SDS011;25538;48.392;9.976;2022-08-19T13:34:30;34.90;;;27.30;;
39864;SDS011;25538;48.392;9.976;2022-08-19T13:36:59;30.90;;;22.83;;
39864;SDS011;25538;48.392;9.976;2022-08-19T13:39:28;24.13;;;21.70;;
39864;SDS011;25538;48.392;9.976;2022-08-19T13:41:55;21.80;;;19.70;;
39864;SDS011;25538;48.392;9.976;2022-08-19T13:44:21;25.30;;;22.63;;
39864;SDS011;25538;48.392;9.976;2022-08-19T13:46:48;36.03;;;27.80;;
39864;SDS011;25538;48.392;9.976;2022-08-19T13:49:16;41.97;;;29.57;;
39864;SDS011;25538;48.392;9.976;2022-08-19T13:51:42;41.93;;;30.57;;
39864;SDS011;25538;48.392;9.976;2022-08-19T13:54:09;39.93;;;30.00;;
39864;SDS011;25538;48.392;9.976;2022-08-19T13:56:39;53.63;;;36.30;;
39864;SDS011;25538;48.392;9.976;2022-08-19T13:59:07;47.97;;;34.63;;
39864;SDS011;25538;48.392;9.976;2022-08-19T14:01:33;50.03;;;35.60;;
39864;SDS011;25538;48.392;9.976;2022-08-19T14:04:00;47.57;;;35.70;;
39864;SDS011;25538;48.392;9.976;2022-08-19T14:06:26;56.77;;;38.57;;
39864;SDS011;25538;48.392;9.976;2022-08-19T14:08:52;62.73;;;39.97;;
39864;SDS011;25538;48.392;9.976;2022-08-19T14:11:18;68.20;;;40.90;;
39864;SDS011;25538;48.392;9.976;2022-08-19T14:13:44;73.83;;;43.67;;
39864;SDS011;25538;48.392;9.976;2022-08-19T14:16:11;84.60;;;46.50;;
39864;SDS011;25538;48.392;9.976;2022-08-19T14:18:38;58.37;;;42.70;;
39864;SDS011;25538;48.392;9.976;2022-08-19T14:21:05;80.53;;;44.53;;
39864;SDS011;25538;48.392;9.976;2022-08-19T14:23:32;56.53;;;41.40;;
39864;SDS011;25538;48.392;9.976;2022-08-19T14:26:09;99.47;;;45.50;;
39864;SDS011;25538;48.392;9.976;2022-08-19T14:28:38;58.93;;;40.70;;
39864;SDS011;25538;48.392;9.976;2022-08-19T14:31:06;79.93;;;45.00;;
39864;SDS011;25538;48.392;9.976;2022-08-19T14:33:32;57.10;;;40.47;;
39864;SDS011;25538;48.392;9.976;2022-08-19T14:35:58;65.53;;;42.33;;
39864;SDS011;25538;48.392;9.976;2022-08-19T14:38:25;58.67;;;41.20;;
39864;SDS011;25538;48.392;9.976;2022-08-19T14:40:51;61.03;;;39.10;;
39864;SDS011;25538;48.392;9.976;2022-08-19T14:43:17;52.40;;;37.87;;